Time;durP1;ratioP1;P1;durP2;ratioP2;P2;SDS_P1;SDS_P2;PMS_P1;PMS_P2;Temp;Humidity;BMP_temperature;BMP_pressure;BME280_temperature;BME280_humidity;BME280_pressure;Samples;Min_cycle;Max_cycle;Signal;HPM_P1;HPM_P2
2022/11/09 00:01:31;;;;;;;5.87;4.43;;;;;;;13.08;67.42;98465.63;5090854;28;42143;-78
2022/11/09 00:04:00;;;;;;;6.30;4.90;;;;;;;13.05;68.26;98455.22;5091363;28;42475;-78
2022/11/09 00:06:28;;;;;;;5.97;4.87;;;;;;;13.04;68.52;98458.84;5091203;28;39203;-78
2022/11/09 00:08:56;;;;;;;5.37;4.03;;;;;;;13.04;68.05;98463.31;5074296;28;40607;-78
2022/11/09 00:11:24;;;;;;;5.93;3.93;;;;;;;13.03;68.75;98466.94;5090977;28;42945;-78
2022/11/09 00:13:51;;;;;;;5.50;4.00;;;;;;;12.93;68.72;98445.56;5091119;28;43237;-78
2022/11/09 00:16:22;;;;;;;4.87;3.50;;;;;;;13.00;68.59;98457.38;5092419;28;39981;-78
2022/11/09 00:18:50;;;;;;;4.33;3.50;;;;;;;13.02;68.54;98459.91;5091446;28;42880;-78
2022/11/09 00:21:20;;;;;;;4.53;3.53;;;;;;;12.89;68.99;98429.00;5074021;28;41655;-78
2022/11/09 00:23:48;;;;;;;4.87;3.93;;;;;;;12.96;68.57;98450.63;5091921;28;42254;-78
2022/11/09 00:26:17;;;;;;;5.00;3.27;;;;;;;13.01;68.69;98453.75;5089193;28;39970;-78
2022/11/09 00:28:44;;;;;;;4.67;3.40;;;;;;;12.97;69.25;98449.66;5073673;28;40851;-78
2022/11/09 00:31:14;;;;;;;5.70;4.10;;;;;;;12.92;69.36;98451.84;5090819;28;42740;-78
2022/11/09 00:33:47;;;;;;;5.10;3.90;;;;;;;12.86;68.95;98457.63;5090868;28;41834;-78
2022/11/09 00:36:15;;;;;;;5.23;3.63;;;;;;;12.79;69.29;98449.28;5073975;28;38998;-78
2022/11/09 00:38:42;;;;;;;4.00;3.30;;;;;;;12.68;69.16;98441.31;5074095;28;40671;-78
2022/11/09 00:41:11;;;;;;;5.40;3.90;;;;;;;12.59;70.02;98426.94;5090756;28;42618;-78
2022/11/09 00:43:39;;;;;;;6.10;3.97;;;;;;;12.51;70.17;98429.31;5090697;28;42999;-78
2022/11/09 00:46:07;;;;;;;5.97;3.50;;;;;;;12.53;70.00;98437.16;5073880;28;40092;-78
2022/11/09 00:48:35;;;;;;;3.83;3.10;;;;;;;12.57;69.60;98430.66;5073980;28;41713;-78
2022/11/09 00:51:05;;;;;;;4.83;3.30;;;;;;;12.62;69.43;98436.47;5073527;28;41847;-78
2022/11/09 00:53:33;;;;;;;3.97;3.30;;;;;;;12.65;69.74;98440.69;5090797;28;44108;-78
2022/11/09 00:56:02;;;;;;;4.43;3.20;;;;;;;12.58;69.46;98435.88;5073739;28;39122;-78
2022/11/09 00:58:32;;;;;;;3.47;3.03;;;;;;;12.72;69.31;98452.56;5073979;28;43159;-78
2022/11/09 01:01:05;;;;;;;3.27;3.00;;;;;;;12.73;69.60;98451.59;5090490;28;42556;-78
2022/11/09 01:03:33;;;;;;;4.47;3.27;;;;;;;12.74;69.62;98459.41;5088614;28;42067;-78
2022/11/09 01:06:02;;;;;;;7.10;4.53;;;;;;;12.77;69.99;98467.16;5090290;28;38922;-78
2022/11/09 01:08:32;;;;;;;6.20;4.90;;;;;;;12.79;69.55;98461.72;5076782;28;41081;-78
2022/11/09 01:11:05;;;;;;;7.47;5.50;;;;;;;12.85;69.85;98470.09;5095239;28;42242;-78
2022/11/09 01:13:33;;;;;;;7.43;5.17;;;;;;;12.87;69.79;98462.81;5090835;28;42061;-78
2022/11/09 01:16:04;;;;;;;8.03;5.20;;;;;;;12.92;69.76;98467.78;5094129;28;40656;-78
2022/11/09 01:18:32;;;;;;;6.13;4.60;;;;;;;12.97;69.63;98467.44;5091958;28;41970;-79
2022/11/09 01:21:02;;;;;;;5.90;3.97;;;;;;;13.00;69.85;98468.00;5076819;28;42010;-78
2022/11/09 01:23:33;;;;;;;4.40;3.97;;;;;;;13.06;69.88;98472.03;5090650;28;42293;-79
2022/11/09 01:26:03;;;;;;;5.03;3.70;;;;;;;13.09;69.76;98472.63;5076649;28;39918;-78
2022/11/09 01:28:31;;;;;;;4.13;3.27;;;;;;;13.13;69.38;98474.06;5076780;28;42394;-78
2022/11/09 01:31:02;;;;;;;3.37;3.00;;;;;;;13.16;69.10;98468.53;5076560;28;43208;-78
2022/11/09 01:33:32;;;;;;;4.70;3.13;;;;;;;13.15;69.28;98469.50;5091965;28;43133;-79
2022/11/09 01:36:02;;;;;;;4.60;2.63;;;;;;;13.14;69.00;98472.25;5093635;28;39929;-78
2022/11/09 01:38:33;;;;;;;3.40;2.60;;;;;;;13.15;69.17;98473.97;5091296;28;41480;-77
2022/11/09 01:41:01;;;;;;;3.90;2.80;;;;;;;13.13;68.91;98474.06;5093358;28;43542;-78
2022/11/09 01:43:29;;;;;;;3.50;2.80;;;;;;;13.20;68.79;98496.59;5076847;28;42798;-80
2022/11/09 01:46:01;;;;;;;3.60;2.57;;;;;;;13.17;69.18;98496.81;5094355;28;39858;-79
2022/11/09 01:48:35;;;;;;;3.47;2.83;;;;;;;13.08;69.68;98486.03;5076876;28;42407;-80
2022/11/09 01:51:08;;;;;;;3.40;2.40;;;;;;;12.99;69.72;98503.53;5091193;28;42939;-77
2022/11/09 01:53:42;;;;;;;2.90;2.57;;;;;;;12.96;70.49;98482.53;5076469;28;42796;-78
2022/11/09 01:56:13;;;;;;;4.03;2.50;;;;;;;12.89;70.82;98495.44;5093616;28;39319;-79
2022/11/09 01:58:46;;;;;;;3.00;2.70;;;;;;;12.85;71.72;98490.50;5090427;28;42006;-79
2022/11/09 02:01:16;;;;;;;3.57;3.00;;;;;;;12.81;71.74;98484.56;5091479;28;42687;-79
2022/11/09 02:03:48;;;;;;;3.23;2.83;;;;;;;12.75;71.75;98478.84;5076347;28;41830;-78
2022/11/09 02:06:19;;;;;;;3.47;2.90;;;;;;;12.74;72.41;98479.81;5076027;28;40278;-78
2022/11/09 02:08:50;;;;;;;3.80;2.73;;;;;;;12.68;72.78;98482.97;5076632;28;40670;-79
2022/11/09 02:11:21;;;;;;;3.43;2.90;;;;;;;12.59;73.41;98469.44;5091215;28;42479;-78
2022/11/09 02:13:53;;;;;;;3.20;2.90;;;;;;;12.51;74.52;98458.53;5076434;28;41940;-78
2022/11/09 02:16:22;;;;;;;4.73;3.30;;;;;;;12.47;74.94;98443.81;5091384;28;39944;-78
2022/11/09 10:02:21;;;;;;;3.03;2.40;;;;;;;12.91;100.00;98626.41;5129653;27;21061;-76
2022/11/09 10:04:50;;;;;;;2.10;1.90;;;;;;;13.52;100.00;98631.50;5111107;27;38686;-76
2022/11/09 10:07:22;;;;;;;3.43;2.43;;;;;;;14.14;100.00;98626.53;5110859;27;41259;-77
2022/11/09 10:10:12;;;;;;;2.53;1.90;;;;;;;14.70;100.00;98627.25;5126299;27;43626;-76
2022/11/09 10:12:51;;;;;;;1.60;1.50;;;;;;;15.21;100.00;98629.16;5107543;27;41212;-77
2022/11/09 10:15:26;;;;;;;3.47;1.80;;;;;;;15.46;100.00;98618.06;5127257;27;40983;-77
2022/11/09 10:18:11;;;;;;;4.20;1.80;;;;;;;15.76;97.56;98630.63;5126272;27;42830;-77
2022/11/09 10:20:50;;;;;;;1.77;1.60;;;;;;;16.46;94.15;98634.22;5127613;27;43826;-78
2022/11/09 10:23:34;;;;;;;1.50;1.40;;;;;;;17.65;90.18;98626.72;5128121;27;43792;-77
2022/11/09 10:26:04;;;;;;;1.80;1.63;;;;;;;19.09;84.30;98630.38;5110490;27;39074;-78
2022/11/09 10:28:33;;;;;;;2.57;1.50;;;;;;;20.26;79.49;98620.88;5145062;27;40070;-77
2022/11/09 10:31:02;;;;;;;2.40;1.60;;;;;;;21.91;72.17;98632.41;5110534;27;41837;-77
2022/11/09 10:33:32;;;;;;;1.50;1.40;;;;;;;23.43;62.98;98663.34;5127465;27;41507;-77
2022/11/09 10:36:07;;;;;;;3.40;1.23;;;;;;;24.95;59.29;98666.38;5127699;27;39983;-77
2022/11/09 10:38:40;;;;;;;1.50;1.40;;;;;;;26.12;54.69;98663.00;5127642;27;41498;-78
2022/11/09 10:41:31;;;;;;;1.83;1.17;;;;;;;27.09;51.69;98690.03;5128444;27;43801;-78
2022/11/09 10:44:19;;;;;;;1.40;1.30;;;;;;;27.09;50.55;98689.19;5127591;27;41551;-77
2022/11/09 10:47:12;;;;;;;2.17;1.27;;;;;;;27.10;49.59;98690.88;5127962;27;39101;-78
2022/11/09 10:50:28;;;;;;;1.00;1.00;;;;;;;26.60;48.98;98689.41;5127196;27;42006;-78
2022/11/09 10:53:17;;;;;;;1.70;1.33;;;;;;;27.45;48.24;98676.06;5127720;27;41523;-79
2022/11/09 10:56:14;;;;;;;1.70;1.20;;;;;;;28.20;47.51;98683.00;5127885;27;42936;-78
2022/11/09 10:59:00;;;;;;;1.80;1.20;;;;;;;27.86;46.32;98678.63;5127770;27;39965;-78
2022/11/09 11:01:47;;;;;;;1.20;1.10;;;;;;;26.79;47.46;98673.19;5128361;27;41990;-77
2022/11/09 11:04:33;;;;;;;1.03;1.03;;;;;;;26.67;48.76;98644.94;5127429;27;41928;-79
2022/11/09 11:07:22;;;;;;;1.20;0.90;;;;;;;27.49;46.54;98654.72;5127435;27;41175;-78
2022/11/09 11:10:17;;;;;;;1.67;1.10;;;;;;;28.16;43.61;98670.84;5127337;27;38725;-78
2022/11/09 11:13:24;;;;;;;1.37;1.27;;;;;;;29.22;42.72;98675.88;5115429;27;41624;-79
2022/11/09 11:16:26;;;;;;;2.03;1.10;;;;;;;30.20;40.45;98687.91;5114365;28;43481;-78
2022/11/09 11:19:34;;;;;;;0.90;0.90;;;;;;;29.78;38.64;98705.94;5114697;28;42332;-79
2022/11/09 11:22:26;;;;;;;0.80;0.70;;;;;;;29.65;39.35;98703.31;5113430;28;39261;-78
2022/11/09 11:25:19;;;;;;;1.90;1.10;;;;;;;28.86;39.38;98685.53;5112994;28;41320;-78
2022/11/09 11:28:17;;;;;;;1.03;0.80;;;;;;;28.06;40.39;98685.94;5113633;28;44050;-78
2022/11/09 11:31:04;;;;;;;0.87;0.87;;;;;;;27.14;41.92;98664.94;5113393;28;41929;-78
2022/11/09 11:33:50;;;;;;;1.70;0.70;;;;;;;26.35;42.99;98641.03;5113590;28;39178;-78
2022/11/09 11:36:49;;;;;;;0.87;0.87;;;;;;;25.77;43.77;98640.47;5114194;28;41949;-78
2022/11/09 11:39:47;;;;;;;1.10;0.80;;;;;;;24.98;45.07;98634.31;5114239;28;42715;-77
2022/11/09 11:42:54;;;;;;;0.70;0.70;;;;;;;24.39;46.90;98630.06;5113318;28;42654;-78
2022/11/09 11:45:42;;;;;;;0.83;0.83;;;;;;;24.00;47.21;98623.91;5113259;28;39081;-78
2022/11/09 11:48:57;;;;;;;1.30;0.97;;;;;;;23.74;48.12;98617.28;5111240;28;41933;-77
2022/11/09 11:51:54;;;;;;;1.20;1.10;;;;;;;23.72;47.97;98622.88;5114327;28;43475;-78
2022/11/09 11:54:55;;;;;;;1.60;1.00;;;;;;;23.62;49.07;98627.69;5113971;28;43047;-77
2022/11/09 11:57:54;;;;;;;0.87;0.70;;;;;;;23.87;48.37;98622.88;5113225;28;40349;-77
2022/11/09 12:00:46;;;;;;;1.47;0.80;;;;;;;24.08;48.67;98628.41;5113574;28;41726;-78
2022/11/09 12:03:55;;;;;;;1.70;0.80;;;;;;;24.12;47.29;98640.50;5112670;28;43169;-79
2022/11/09 12:07:01;;;;;;;0.80;0.80;;;;;;;24.14;47.79;98640.31;5113760;28;42212;-77
2022/11/09 12:10:02;;;;;;;1.00;0.70;;;;;;;23.94;48.71;98634.63;5112378;28;41805;-77
2022/11/09 12:13:00;;;;;;;2.10;0.90;;;;;;;23.60;48.16;98640.59;5114401;28;42752;-78
2022/11/09 12:15:55;;;;;;;1.53;0.90;;;;;;;24.17;47.44;98634.53;5112691;28;41864;-78
2022/11/09 12:18:50;;;;;;;0.77;0.77;;;;;;;24.09;47.72;98626.53;5112566;28;41831;-77
2022/11/09 12:21:42;;;;;;;1.83;0.80;;;;;;;23.65;49.15;98624.63;5112626;28;39954;-77
2022/11/09 12:24:37;;;;;;;3.27;0.93;;;;;;;23.25;49.82;98617.69;5109386;28;41712;-77
2022/11/09 12:27:48;;;;;;;0.93;0.87;;;;;;;22.79;50.76;98619.59;5113656;28;44102;-77
2022/11/09 12:30:47;;;;;;;0.80;0.80;;;;;;;22.44;51.70;98607.47;5111872;28;42203;-77
2022/11/09 12:33:44;;;;;;;1.77;1.33;;;;;;;22.38;51.86;98603.59;5113585;28;40704;-78
2022/11/09 12:36:37;;;;;;;0.80;0.80;;;;;;;22.06;52.08;98582.19;5113075;28;41445;-78
2022/11/09 12:39:27;;;;;;;2.60;1.30;;;;;;;;;;5110472;28;43639;-79
2022/11/09 12:42:19;;;;;;;1.83;1.40;;;;;;;21.55;53.36;98578.94;5113386;28;43223;-78
2022/11/09 12:45:18;;;;;;;1.93;1.33;;;;;;;21.35;54.46;98586.56;5110742;28;39749;-78
2022/11/09 12:48:15;;;;;;;1.53;1.10;;;;;;;21.17;55.11;98589.41;5110316;28;41756;-78
2022/11/09 12:51:04;;;;;;;1.37;1.13;;;;;;;21.01;55.80;98581.38;5111554;28;42122;-78
2022/11/09 12:53:50;;;;;;;1.60;1.30;;;;;;;20.87;56.29;98576.66;5112259;28;41729;-78
2022/11/09 12:56:42;;;;;;;1.30;1.00;;;;;;;20.72;56.17;98575.63;5112741;28;39943;-77
2022/11/09 12:59:36;;;;;;;1.70;1.00;;;;;;;20.64;56.24;98584.53;5110201;28;41636;-78
2022/11/09 13:02:28;;;;;;;1.33;1.20;;;;;;;20.57;56.15;98579.97;5111518;28;44049;-77
2022/11/09 13:05:30;;;;;;;1.33;1.10;;;;;;;20.46;56.60;98580.28;5110976;28;43301;-78
2022/11/09 13:08:21;;;;;;;3.80;1.17;;;;;;;20.20;56.18;98575.81;5111945;28;40201;-77
2022/11/09 13:11:09;;;;;;;3.27;1.60;;;;;;;20.10;56.78;98580.50;5112109;28;41856;-77
2022/11/09 13:14:33;;;;;;;1.87;1.00;;;;;;;19.88;57.09;98587.31;5111411;28;42998;-78
2022/11/09 13:18:03;;;;;;;1.23;1.13;;;;;;;19.65;57.45;98576.28;5112933;28;43328;-77
2022/11/09 13:20:51;;;;;;;1.37;0.90;;;;;;;19.45;57.53;98574.75;5111264;28;39889;-77
2022/11/09 13:23:39;;;;;;;1.20;1.03;;;;;;;19.24;58.96;98572.47;5109687;28;41877;-77
2022/11/09 13:26:55;;;;;;;1.60;0.90;;;;;;;19.01;59.28;98569.44;5111338;28;41179;-78
2022/11/09 13:29:51;;;;;;;2.50;0.80;;;;;;;18.88;59.79;98577.06;5110884;28;42267;-77
2022/11/09 13:32:37;;;;;;;1.53;0.73;;;;;;;18.76;59.85;98583.66;5112529;28;40691;-78
2022/11/09 13:35:59;;;;;;;1.73;1.10;;;;;;;18.65;60.90;98575.84;5110837;28;40765;-78
2022/11/09 13:38:46;;;;;;;1.73;1.30;;;;;;;18.53;60.88;98577.03;5111144;28;42015;-77
2022/11/09 13:41:43;;;;;;;2.30;1.40;;;;;;;18.46;61.70;98571.41;5112244;28;41992;-77
2022/11/09 13:44:31;;;;;;;1.97;1.20;;;;;;;18.41;61.61;98588.97;5111313;28;39504;-77
2022/11/09 13:47:33;;;;;;;2.73;1.33;;;;;;;18.28;62.34;98579.47;5111057;28;41784;-79
2022/11/09 13:54:14;;;;;;;4.20;2.50;;;;;;;18.10;62.87;98581.25;5110964;28;41453;-78
2022/11/09 13:57:12;;;;;;;5.40;2.10;;;;;;;17.63;62.95;98507.31;5110814;28;40103;-78
2022/11/09 14:00:29;;;;;;;2.33;1.80;;;;;;;17.85;63.95;98549.81;5109797;28;41215;-77
2022/11/09 14:03:22;;;;;;;1.77;1.43;;;;;;;17.90;63.93;98580.53;5110129;28;41995;-76
2022/11/09 14:06:12;;;;;;;3.43;2.07;;;;;;;17.69;64.43;98571.03;5109329;28;41070;-78
2022/11/09 14:09:01;;;;;;;2.73;2.00;;;;;;;17.82;64.37;98596.47;5109267;28;40609;-78
2022/11/09 14:12:00;;;;;;;3.57;2.00;;;;;;;17.79;64.52;98588.75;5110068;28;40561;-78
2022/11/09 14:15:17;;;;;;;2.77;1.87;;;;;;;17.85;64.42;98592.66;5110671;28;42218;-78
2022/11/09 14:18:19;;;;;;;2.73;2.13;;;;;;;17.84;64.34;98590.97;5106021;28;42305;-77
2022/11/09 14:21:17;;;;;;;5.20;3.43;;;;;;;17.77;64.72;98581.84;5111148;28;40273;-77
2022/11/09 14:24:14;;;;;;;6.43;2.70;;;;;;;17.70;64.77;98586.09;5110647;28;41099;-77
2022/11/09 14:27:16;;;;;;;2.90;1.70;;;;;;;17.67;64.90;98589.94;5111568;28;42798;-77
2022/11/09 14:30:13;;;;;;;2.83;1.73;;;;;;;17.63;65.19;98587.66;5108825;28;42032;-77
2022/11/09 14:32:59;;;;;;;2.17;1.60;;;;;;;17.56;65.45;98585.56;5110414;28;40666;-78
2022/11/09 14:35:46;;;;;;;1.50;1.40;;;;;;;17.42;66.21;98578.03;5110430;28;40536;-77
2022/11/09 14:38:36;;;;;;;1.77;1.60;;;;;;;17.41;66.45;98588.88;5110779;28;42571;-78
2022/11/09 14:41:25;;;;;;;1.83;1.30;;;;;;;17.34;66.97;98593.94;5108262;28;42207;-77
2022/11/09 14:44:17;;;;;;;1.93;1.40;;;;;;;17.29;66.74;98590.88;5110459;28;39205;-78
2022/11/09 14:47:05;;;;;;;2.70;2.10;;;;;;;17.21;67.07;98594.25;5110718;27;41041;-78
2022/11/09 14:49:52;;;;;;;3.23;1.70;;;;;;;17.21;66.91;98604.09;5113213;28;42277;-77
2022/11/09 14:52:40;;;;;;;3.67;2.33;;;;;;;17.14;67.44;98603.84;5114058;28;41268;-77
2022/11/09 14:55:27;;;;;;;4.50;2.50;;;;;;;17.08;67.81;98603.56;5113498;28;40448;-77
2022/11/09 14:58:15;;;;;;;3.70;1.80;;;;;;;17.02;67.97;98607.69;5114864;28;41589;-77
2022/11/09 15:01:09;;;;;;;3.03;1.80;;;;;;;16.95;68.27;98603.00;5113744;28;41522;-77
2022/11/09 15:04:08;;;;;;;2.53;1.63;;;;;;;16.87;68.69;98601.06;5114689;28;42232;-77
2022/11/09 15:06:56;;;;;;;2.00;1.30;;;;;;;16.83;68.48;98616.53;5114960;28;41135;-78
2022/11/09 15:09:44;;;;;;;1.77;1.40;;;;;;;16.79;68.25;98614.31;5113693;28;40623;-77
2022/11/09 15:12:31;;;;;;;2.40;1.53;;;;;;;16.74;68.69;98620.06;5112928;28;43758;-77
2022/11/09 15:15:23;;;;;;;2.70;1.87;;;;;;;16.67;69.06;98616.28;5111981;28;42038;-78
2022/11/09 15:18:18;;;;;;;3.43;1.50;;;;;;;16.60;69.54;98615.09;5113889;28;40602;-77
2022/11/09 15:21:14;;;;;;;2.83;1.80;;;;;;;16.42;69.71;98595.41;5113678;28;41838;-77
2022/11/09 15:24:14;;;;;;;3.80;1.60;;;;;;;16.48;70.32;98613.53;5111278;28;44295;-77
2022/11/09 15:27:00;;;;;;;3.57;1.53;;;;;;;16.37;69.94;98592.28;5114561;28;43256;-77
2022/11/09 15:29:48;;;;;;;2.27;2.03;;;;;;;16.42;70.73;98614.94;5113131;28;39058;-77
2022/11/09 15:32:39;;;;;;;5.70;2.00;;;;;;;16.39;70.50;98611.69;5112988;28;42630;-78
2022/11/09 15:35:26;;;;;;;2.93;1.53;;;;;;;16.34;70.27;98611.25;5111319;28;42599;-78
2022/11/09 15:38:29;;;;;;;2.83;2.13;;;;;;;16.29;70.95;98611.69;5112889;28;40960;-77
2022/11/09 15:41:18;;;;;;;3.00;1.40;;;;;;;16.23;70.82;98606.03;5112869;28;40632;-77
2022/11/09 15:44:06;;;;;;;2.07;1.80;;;;;;;16.21;71.57;98613.34;5111206;28;41937;-77
2022/11/09 15:46:53;;;;;;;2.87;1.80;;;;;;;16.14;72.25;98619.25;5112948;28;41862;-77
2022/11/09 15:49:41;;;;;;;2.40;2.20;;;;;;;16.02;72.47;98609.66;5114226;28;42212;-77
2022/11/09 15:52:34;;;;;;;3.70;2.00;;;;;;;16.04;73.02;98617.53;5111221;28;40042;-77
2022/11/09 15:55:23;;;;;;;2.83;2.20;;;;;;;16.03;72.93;98622.03;5111064;28;42072;-78
2022/11/09 15:58:12;;;;;;;2.57;1.77;;;;;;;15.98;73.91;98624.25;5112850;27;43761;-78
2022/11/09 16:00:58;;;;;;;2.53;2.00;;;;;;;15.95;73.69;98623.69;5112181;28;43221;-77
2022/11/09 16:03:45;;;;;;;2.43;1.70;;;;;;;15.86;73.67;98619.97;5112202;28;38741;-77
2022/11/09 16:06:32;;;;;;;1.90;1.73;;;;;;;15.88;73.78;98627.88;5110967;28;41959;-77
2022/11/09 16:09:18;;;;;;;2.43;1.87;;;;;;;15.85;74.14;98631.63;5112704;28;44916;-77
2022/11/09 16:12:05;;;;;;;3.23;2.30;;;;;;;15.73;74.63;98619.38;5112331;28;41011;-78
2022/11/09 16:14:51;;;;;;;3.53;2.10;;;;;;;15.80;74.73;98633.88;5112516;28;39281;-78
2022/11/09 16:17:37;;;;;;;2.53;1.90;;;;;;;15.77;75.14;98631.47;5113337;28;42785;-77
2022/11/09 16:20:24;;;;;;;1.70;1.60;;;;;;;15.70;74.97;98619.66;5112539;28;42813;-77
2022/11/09 16:23:11;;;;;;;2.80;2.23;;;;;;;15.72;75.24;98634.53;5112112;28;41745;-77
2022/11/09 16:25:58;;;;;;;2.60;2.00;;;;;;;15.69;75.62;98639.31;5112345;28;39226;-77
2022/11/09 16:28:44;;;;;;;4.60;2.53;;;;;;;15.66;75.45;98634.25;5113352;28;42714;-76
2022/11/09 16:31:30;;;;;;;2.40;2.20;;;;;;;15.61;75.30;98637.28;5110458;28;42829;-78
2022/11/09 16:34:17;;;;;;;2.10;1.90;;;;;;;15.60;75.80;98654.28;5110333;28;42497;-78
2022/11/09 16:37:03;;;;;;;2.20;1.80;;;;;;;15.55;76.26;98645.84;5111020;28;39674;-77
2022/11/09 16:39:51;;;;;;;4.17;2.13;;;;;;;15.55;76.42;98658.34;5111979;28;43207;-78
2022/11/09 16:42:37;;;;;;;2.43;1.97;;;;;;;15.54;76.40;98651.28;5111312;28;43721;-78
2022/11/09 16:45:24;;;;;;;2.87;2.20;;;;;;;15.54;76.18;98661.97;5110250;28;42982;-78
2022/11/09 16:48:13;;;;;;;2.03;1.83;;;;;;;15.54;75.96;98656.63;5112217;28;40895;-77
2022/11/09 16:51:07;;;;;;;2.90;2.00;;;;;;;15.55;76.55;98667.19;5111933;28;42001;-77
2022/11/09 16:53:53;;;;;;;2.87;1.77;;;;;;;15.54;76.17;98669.97;5113042;28;42785;-77
2022/11/09 16:56:46;;;;;;;3.60;2.10;;;;;;;15.41;76.63;98657.66;5109116;28;43439;-77
2022/11/09 16:59:34;;;;;;;2.90;2.30;;;;;;;15.51;77.51;98670.22;5110341;28;39469;-77
2022/11/09 17:02:20;;;;;;;2.53;2.00;;;;;;;15.41;77.46;98657.66;5111873;28;41252;-76
2022/11/09 17:05:07;;;;;;;2.67;2.10;;;;;;;15.53;77.46;98681.63;5111354;28;43520;-77
2022/11/09 17:07:54;;;;;;;3.07;1.80;;;;;;;15.52;77.29;98688.78;5109697;28;42230;-77
2022/11/09 17:10:41;;;;;;;2.53;2.10;;;;;;;15.52;77.03;98690.59;5112014;27;39928;-77
2022/11/09 17:13:29;;;;;;;2.47;1.90;;;;;;;15.54;77.00;98702.00;5111358;28;42906;-77
2022/11/09 17:16:19;;;;;;;2.37;2.10;;;;;;;15.55;76.81;98711.72;5111658;28;42057;-77
2022/11/09 17:19:06;;;;;;;5.20;2.17;;;;;;;15.49;76.49;98698.84;5111015;28;42297;-77
2022/11/09 17:21:52;;;;;;;3.70;1.90;;;;;;;15.51;76.36;98708.44;5111296;28;40055;-77
2022/11/09 17:24:38;;;;;;;2.23;2.03;;;;;;;15.45;76.61;98717.78;5111316;28;41849;-77
2022/11/09 17:27:25;;;;;;;3.50;2.40;;;;;;;15.42;76.87;98717.22;5111156;28;41830;-77
2022/11/09 17:30:13;;;;;;;2.20;2.00;;;;;;;15.27;78.54;98706.03;5111394;28;43157;-77
2022/11/09 17:33:08;;;;;;;2.13;1.90;;;;;;;15.27;78.11;98714.03;5109230;28;40195;-77
2022/11/09 17:36:05;;;;;;;2.57;2.00;;;;;;;15.29;78.09;98728.09;5112247;28;42758;-79
2022/11/09 17:38:51;;;;;;;2.50;2.00;;;;;;;15.25;77.81;98736.47;5109360;28;42792;-77
2022/11/09 17:41:38;;;;;;;3.00;2.27;;;;;;;15.11;77.93;98729.59;5111264;28;41139;-77
2022/11/09 17:44:24;;;;;;;2.70;2.30;;;;;;;15.16;78.23;98748.75;5111078;28;38556;-77
2022/11/09 17:47:12;;;;;;;2.10;1.90;;;;;;;15.05;78.69;98740.81;5109046;28;42900;-77
2022/11/09 17:49:58;;;;;;;2.53;2.10;;;;;;;15.04;79.15;98745.28;5111108;28;44130;-77
2022/11/09 17:52:44;;;;;;;2.17;1.97;;;;;;;15.03;79.44;98745.41;5110329;28;41081;-77
2022/11/09 17:55:30;;;;;;;2.13;1.73;;;;;;;14.99;79.99;98746.63;5110941;28;39669;-77
2022/11/09 17:58:16;;;;;;;2.77;1.70;;;;;;;14.96;80.36;98752.22;5110829;28;40520;-76
2022/11/09 18:01:07;;;;;;;2.30;2.10;;;;;;;14.88;80.91;98744.00;5110234;28;42685;-77
2022/11/09 18:03:54;;;;;;;4.33;2.20;;;;;;;14.92;81.32;98756.13;5109079;28;42317;-77
2022/11/09 18:06:41;;;;;;;2.90;1.97;;;;;;;14.91;81.18;98765.09;5110453;28;40454;-77
2022/11/09 18:09:27;;;;;;;2.63;1.70;;;;;;;14.91;81.19;98767.75;5109921;28;42008;-76
2022/11/09 18:12:15;;;;;;;3.93;1.90;;;;;;;14.89;81.03;98762.53;5111092;28;41488;-78
2022/11/09 18:15:01;;;;;;;2.00;1.40;;;;;;;14.91;81.04;98776.59;5110417;28;41288;-76
2022/11/09 18:17:47;;;;;;;5.00;1.67;;;;;;;14.91;81.15;98776.59;5110710;28;38776;-76
2022/11/09 18:20:37;;;;;;;2.10;1.90;;;;;;;14.89;81.03;98767.03;5111502;28;41725;-77
2022/11/09 18:23:24;;;;;;;2.20;1.57;;;;;;;14.92;80.44;98778.28;5111433;28;43816;-77
2022/11/09 18:26:10;;;;;;;4.67;1.63;;;;;;;14.93;80.21;98781.81;5112300;28;43156;-77
2022/11/09 18:28:56;;;;;;;2.17;1.70;;;;;;;14.92;80.30;98794.28;5112470;28;39900;-77
2022/11/09 18:31:42;;;;;;;1.93;1.50;;;;;;;14.90;80.24;98785.56;5115186;28;41911;-77
2022/11/09 18:34:29;;;;;;;2.57;1.80;;;;;;;14.90;80.01;98780.22;5114708;28;42646;-77
2022/11/09 18:37:16;;;;;;;2.67;1.53;;;;;;;14.90;80.27;98793.56;5112453;28;42996;-77
2022/11/09 18:40:03;;;;;;;2.70;1.80;;;;;;;14.92;79.69;98793.44;5115046;28;40271;-76
2022/11/09 18:42:49;;;;;;;2.33;1.47;;;;;;;14.95;79.87;98791.38;5112171;28;41743;-76
2022/11/09 18:45:39;;;;;;;2.57;1.80;;;;;;;14.94;79.85;98781.69;5113733;28;41692;-76
2022/11/09 18:48:26;;;;;;;2.30;2.03;;;;;;;14.98;79.72;98792.94;5113022;28;41347;-76
2022/11/09 18:51:12;;;;;;;2.87;1.80;;;;;;;14.97;79.57;98785.91;5112244;28;40995;-77
2022/11/09 18:54:00;;;;;;;2.60;1.60;;;;;;;15.01;79.43;98798.03;5112236;28;41576;-76
2022/11/09 18:56:47;;;;;;;1.87;1.77;;;;;;;14.99;80.17;98792.81;5107544;28;41563;-76
2022/11/09 18:59:36;;;;;;;3.00;1.80;;;;;;;14.99;80.11;98799.97;5112744;28;42593;-76
2022/11/09 19:02:22;;;;;;;2.47;1.70;;;;;;;14.98;79.49;98803.59;5112584;28;38699;-77
2022/11/09 19:05:10;;;;;;;1.73;1.33;;;;;;;14.91;79.58;98791.75;5109089;28;42611;-80
2022/11/09 19:07:56;;;;;;;2.57;2.10;;;;;;;14.99;79.15;98805.28;5113405;28;43628;-76
2022/11/09 19:10:43;;;;;;;5.23;2.70;;;;;;;15.06;79.23;98822.50;5112474;28;41437;-76
2022/11/09 19:13:29;;;;;;;4.17;2.33;;;;;;;15.07;79.03;98826.88;5114239;28;39936;-76
2022/11/09 19:16:17;;;;;;;2.40;2.10;;;;;;;15.02;78.94;98821.91;5112648;28;40569;-77
2022/11/09 19:19:03;;;;;;;2.27;1.77;;;;;;;15.02;78.95;98823.72;5112284;28;41297;-76
2022/11/09 19:21:51;;;;;;;2.87;2.13;;;;;;;15.03;78.73;98828.09;5110567;28;43145;-76
2022/11/09 19:24:37;;;;;;;2.43;2.10;;;;;;;15.02;78.86;98839.72;5112739;28;38851;-75
2022/11/09 19:27:27;;;;;;;5.40;2.20;;;;;;;14.97;78.41;98831.22;5111958;28;42150;-78
2022/11/09 19:30:13;;;;;;;2.10;1.90;;;;;;;15.03;78.54;98833.41;5112592;28;41750;-75
2022/11/09 19:33:00;;;;;;;1.97;1.70;;;;;;;15.00;78.23;98844.31;5111853;27;42433;-75
2022/11/09 19:35:50;;;;;;;2.10;1.87;;;;;;;14.99;78.52;98839.97;5111908;28;38761;-75
2022/11/09 19:38:36;;;;;;;3.10;1.93;;;;;;;14.98;78.28;98846.25;5110422;28;42682;-76
2022/11/09 19:41:23;;;;;;;1.90;1.63;;;;;;;14.96;78.41;98845.56;5113413;28;44293;-75
2022/11/09 19:44:13;;;;;;;2.23;1.60;;;;;;;14.94;78.44;98850.16;5112642;28;42653;-75
2022/11/09 19:46:59;;;;;;;3.10;2.00;;;;;;;14.90;78.72;98841.56;5111386;28;39141;-77
2022/11/09 19:49:45;;;;;;;2.33;1.70;;;;;;;14.90;78.82;98848.72;5109089;28;41714;-76
2022/11/09 19:52:32;;;;;;;2.30;1.53;;;;;;;14.90;78.83;98854.03;5111946;28;42173;-75
2022/11/09 19:55:18;;;;;;;2.53;1.73;;;;;;;14.89;78.98;98857.69;5108068;28;41277;-77
2022/11/09 19:58:04;;;;;;;2.27;1.93;;;;;;;14.88;78.88;98872.81;5109667;28;40836;-76
2022/11/09 20:00:51;;;;;;;2.80;1.90;;;;;;;14.84;78.65;98876.69;5107980;28;42555;-77
2022/11/09 20:03:38;;;;;;;4.37;1.90;;;;;;;14.88;78.96;98879.97;5108196;28;42655;-76
2022/11/09 20:06:24;;;;;;;2.00;1.77;;;;;;;14.87;78.86;98891.63;5111521;28;41837;-76
2022/11/09 20:09:10;;;;;;;3.10;2.30;;;;;;;14.88;78.67;98887.97;5109636;28;38976;-75
2022/11/09 20:15:01;;;;;;;2.47;2.03;;;;;;;14.84;78.42;98886.50;5108307;28;42833;-76
2022/11/09 20:17:49;;;;;;;3.47;2.20;;;;;;;14.84;78.35;98899.84;5106334;28;41975;-76
2022/11/09 20:20:35;;;;;;;2.30;2.00;;;;;;;14.85;78.33;98906.88;5110186;28;39921;-76
2022/11/09 20:23:22;;;;;;;2.50;1.90;;;;;;;14.83;78.64;98900.84;5105284;28;41768;-79
2022/11/09 20:26:10;;;;;;;2.03;1.60;;;;;;;14.83;78.56;98904.38;5107153;28;42273;-76
2022/11/09 20:28:56;;;;;;;2.60;2.10;;;;;;;14.82;78.49;98915.16;5106809;28;41115;-77
2022/11/09 20:31:42;;;;;;;2.23;1.97;;;;;;;14.80;78.91;98911.75;5109034;28;39721;-76
2022/11/09 20:34:30;;;;;;;3.00;1.60;;;;;;;14.79;78.43;98918.91;5107377;28;42185;-76
2022/11/09 20:37:17;;;;;;;2.60;2.37;;;;;;;14.73;78.93;98906.88;5109362;28;43865;-76
2022/11/09 20:40:06;;;;;;;2.53;1.47;;;;;;;14.76;78.97;98920.94;5107845;28;43398;-76
2022/11/09 20:42:52;;;;;;;2.30;2.10;;;;;;;14.71;79.00;98914.16;5107201;28;39623;-77
2022/11/09 20:45:39;;;;;;;2.10;1.57;;;;;;;14.74;79.13;98924.56;5108909;28;41823;-77
2022/11/09 20:48:25;;;;;;;2.13;1.70;;;;;;;14.73;78.88;98935.34;5105658;28;42792;-76
